sensor_id;sensor_type;location;lat;lon;timestamp;P1;durP1;ratioP1;P2;durP2;ratioP2
5125;SDS011;63008;53.112;8.896;2022-12-05T00:00:52;46.40;;;27.20;;
5125;SDS011;63008;53.112;8.896;2022-12-05T00:02:55;49.50;;;27.33;;
5125;SDS011;63008;53.112;8.896;2022-12-05T00:04:55;45.80;;;27.50;;
5125;SDS011;63008;53.112;8.896;2022-12-05T00:06:56;45.00;;;26.23;;
5125;SDS011;63008;53.112;8.896;2022-12-05T00:08:57;50.80;;;27.67;;
5125;SDS011;63008;53.112;8.896;2022-12-05T00:10:59;42.80;;;25.50;;
5125;SDS011;63008;53.112;8.896;2022-12-05T00:13:00;46.40;;;26.10;;
5125;SDS011;63008;53.112;8.896;2022-12-05T00:15:01;47.73;;;27.10;;
5125;SDS011;63008;53.112;8.896;2022-12-05T00:17:02;44.93;;;26.60;;
5125;SDS011;63008;53.112;8.896;2022-12-05T00:19:04;50.33;;;26.57;;
5125;SDS011;63008;53.112;8.896;2022-12-05T00:21:07;45.80;;;26.90;;
5125;SDS011;63008;53.112;8.896;2022-12-05T00:23:12;48.70;;;27.20;;
5125;SDS011;63008;53.112;8.896;2022-12-05T00:25:13;44.93;;;27.57;;
5125;SDS011;63008;53.112;8.896;2022-12-05T00:27:14;52.10;;;27.97;;
5125;SDS011;63008;53.112;8.896;2022-12-05T00:29:15;47.17;;;27.00;;
5125;SDS011;63008;53.112;8.896;2022-12-05T00:31:18;46.60;;;26.90;;
5125;SDS011;63008;53.112;8.896;2022-12-05T00:33:23;49.20;;;27.70;;
5125;SDS011;63008;53.112;8.896;2022-12-05T00:35:24;46.80;;;27.97;;
5125;SDS011;63008;53.112;8.896;2022-12-05T00:37:25;44.80;;;25.93;;
5125;SDS011;63008;53.112;8.896;2022-12-05T00:39:26;48.77;;;27.70;;
5125;SDS011;63008;53.112;8.896;2022-12-05T00:41:27;49.80;;;27.83;;
5125;SDS011;63008;53.112;8.896;2022-12-05T00:43:29;45.47;;;26.10;;
5125;SDS011;63008;53.112;8.896;2022-12-05T00:45:30;42.50;;;26.80;;
5125;SDS011;63008;53.112;8.896;2022-12-05T00:47:33;46.17;;;27.60;;
5125;SDS011;63008;53.112;8.896;2022-12-05T00:49:37;45.40;;;27.23;;
5125;SDS011;63008;53.112;8.896;2022-12-05T00:51:39;48.53;;;28.37;;
5125;SDS011;63008;53.112;8.896;2022-12-05T00:53:42;49.00;;;28.07;;
5125;SDS011;63008;53.112;8.896;2022-12-05T00:55:43;49.07;;;26.70;;
5125;SDS011;63008;53.112;8.896;2022-12-05T00:57:44;47.87;;;27.60;;
5125;SDS011;63008;53.112;8.896;2022-12-05T00:59:45;50.53;;;29.50;;
5125;SDS011;63008;53.112;8.896;2022-12-05T01:01:47;43.67;;;25.90;;
5125;SDS011;63008;53.112;8.896;2022-12-05T01:03:50;45.07;;;25.50;;
5125;SDS011;63008;53.112;8.896;2022-12-05T01:05:52;44.63;;;26.47;;
5125;SDS011;63008;53.112;8.896;2022-12-05T01:07:53;44.20;;;25.90;;
5125;SDS011;63008;53.112;8.896;2022-12-05T01:09:54;48.00;;;25.90;;
5125;SDS011;63008;53.112;8.896;2022-12-05T01:11:55;43.27;;;27.37;;
5125;SDS011;63008;53.112;8.896;2022-12-05T01:13:56;47.03;;;26.30;;
5125;SDS011;63008;53.112;8.896;2022-12-05T01:15:58;46.03;;;24.57;;
5125;SDS011;63008;53.112;8.896;2022-12-05T01:17:59;41.90;;;25.47;;
5125;SDS011;63008;53.112;8.896;2022-12-05T01:20:00;43.87;;;24.93;;
5125;SDS011;63008;53.112;8.896;2022-12-05T01:22:01;48.93;;;25.83;;
5125;SDS011;63008;53.112;8.896;2022-12-05T01:24:03;43.00;;;25.10;;
5125;SDS011;63008;53.112;8.896;2022-12-05T01:26:08;47.20;;;25.57;;
5125;SDS011;63008;53.112;8.896;2022-12-05T01:28:13;46.40;;;25.60;;
5125;SDS011;63008;53.112;8.896;2022-12-05T01:30:14;46.23;;;25.60;;
5125;SDS011;63008;53.112;8.896;2022-12-05T01:32:16;46.63;;;25.63;;
5125;SDS011;63008;53.112;8.896;2022-12-05T01:34:17;41.17;;;26.20;;
5125;SDS011;63008;53.112;8.896;2022-12-05T01:36:18;46.40;;;25.17;;
5125;SDS011;63008;53.112;8.896;2022-12-05T01:38:19;41.10;;;23.77;;
5125;SDS011;63008;53.112;8.896;2022-12-05T01:40:20;47.53;;;24.90;;
5125;SDS011;63008;53.112;8.896;2022-12-05T01:42:21;49.53;;;25.53;;
5125;SDS011;63008;53.112;8.896;2022-12-05T01:46:23;41.27;;;23.53;;
5125;SDS011;63008;53.112;8.896;2022-12-05T01:48:28;42.10;;;25.60;;
5125;SDS011;63008;53.112;8.896;2022-12-05T01:50:32;43.03;;;24.50;;
5125;SDS011;63008;53.112;8.896;2022-12-05T01:52:34;48.70;;;25.50;;
5125;SDS011;63008;53.112;8.896;2022-12-05T01:54:36;47.60;;;25.43;;
5125;SDS011;63008;53.112;8.896;2022-12-05T01:56:38;50.97;;;27.17;;
5125;SDS011;63008;53.112;8.896;2022-12-05T01:58:41;48.13;;;25.60;;
5125;SDS011;63008;53.112;8.896;2022-12-05T02:00:44;55.03;;;27.53;;
5125;SDS011;63008;53.112;8.896;2022-12-05T02:02:53;45.53;;;26.37;;
5125;SDS011;63008;53.112;8.896;2022-12-05T02:05:00;54.00;;;28.40;;
5125;SDS011;63008;53.112;8.896;2022-12-05T02:07:05;55.03;;;26.60;;
5125;SDS011;63008;53.112;8.896;2022-12-05T02:09:08;50.43;;;26.87;;
5125;SDS011;63008;53.112;8.896;2022-12-05T02:11:09;62.10;;;28.77;;
5125;SDS011;63008;53.112;8.896;2022-12-05T02:13:21;48.60;;;28.27;;
5125;SDS011;63008;53.112;8.896;2022-12-05T02:15:46;52.77;;;28.40;;
5125;SDS011;63008;53.112;8.896;2022-12-05T02:18:10;55.57;;;26.60;;
5125;SDS011;63008;53.112;8.896;2022-12-05T02:25:57;47.93;;;26.50;;
5125;SDS011;63008;53.112;8.896;2022-12-05T02:28:28;48.40;;;26.67;;
5125;SDS011;63008;53.112;8.896;2022-12-05T02:30:46;53.80;;;28.30;;
5125;SDS011;63008;53.112;8.896;2022-12-05T02:33:16;55.20;;;27.50;;
5125;SDS011;63008;53.112;8.896;2022-12-05T02:35:26;50.93;;;27.10;;
5125;SDS011;63008;53.112;8.896;2022-12-05T02:40:00;53.50;;;29.07;;
5125;SDS011;63008;53.112;8.896;2022-12-05T02:42:14;52.17;;;27.03;;
5125;SDS011;63008;53.112;8.896;2022-12-05T02:44:24;51.90;;;26.80;;
5125;SDS011;63008;53.112;8.896;2022-12-05T02:46:33;49.00;;;25.70;;
5125;SDS011;63008;53.112;8.896;2022-12-05T02:48:37;51.77;;;26.73;;
5125;SDS011;63008;53.112;8.896;2022-12-05T02:50:40;56.03;;;29.30;;
5125;SDS011;63008;53.112;8.896;2022-12-05T02:52:42;51.10;;;27.40;;
5125;SDS011;63008;53.112;8.896;2022-12-05T02:54:47;52.13;;;28.30;;
5125;SDS011;63008;53.112;8.896;2022-12-05T02:56:51;53.33;;;27.30;;
5125;SDS011;63008;53.112;8.896;2022-12-05T02:58:54;54.00;;;27.07;;
5125;SDS011;63008;53.112;8.896;2022-12-05T03:00:55;58.03;;;27.53;;
5125;SDS011;63008;53.112;8.896;2022-12-05T03:02:58;57.13;;;28.40;;
5125;SDS011;63008;53.112;8.896;2022-12-05T03:05:35;54.40;;;26.10;;
5125;SDS011;63008;53.112;8.896;2022-12-05T03:07:32;53.93;;;27.50;;
5125;SDS011;63008;53.112;8.896;2022-12-05T03:09:36;56.50;;;27.47;;
5125;SDS011;63008;53.112;8.896;2022-12-05T03:11:44;55.17;;;28.00;;
5125;SDS011;63008;53.112;8.896;2022-12-05T03:13:50;51.63;;;28.43;;
5125;SDS011;63008;53.112;8.896;2022-12-05T03:15:55;55.37;;;27.80;;
5125;SDS011;63008;53.112;8.896;2022-12-05T03:18:04;59.30;;;28.23;;
5125;SDS011;63008;53.112;8.896;2022-12-05T03:20:21;66.70;;;30.50;;
5125;SDS011;63008;53.112;8.896;2022-12-05T03:22:37;53.87;;;28.37;;
5125;SDS011;63008;53.112;8.896;2022-12-05T03:24:58;56.00;;;28.63;;
5125;SDS011;63008;53.112;8.896;2022-12-05T03:34:10;56.80;;;26.73;;
5125;SDS011;63008;53.112;8.896;2022-12-05T03:36:18;53.30;;;27.83;;
5125;SDS011;63008;53.112;8.896;2022-12-05T03:40:41;57.03;;;29.73;;
5125;SDS011;63008;53.112;8.896;2022-12-05T03:43:00;70.30;;;29.30;;
5125;SDS011;63008;53.112;8.896;2022-12-05T03:45:10;53.63;;;27.67;;
5125;SDS011;63008;53.112;8.896;2022-12-05T03:49:36;54.57;;;27.07;;
5125;SDS011;63008;53.112;8.896;2022-12-05T03:51:48;58.50;;;28.10;;
5125;SDS011;63008;53.112;8.896;2022-12-05T03:53:56;54.40;;;26.33;;
5125;SDS011;63008;53.112;8.896;2022-12-05T03:56:09;55.43;;;27.23;;
5125;SDS011;63008;53.112;8.896;2022-12-05T03:58:16;53.50;;;26.43;;
5125;SDS011;63008;53.112;8.896;2022-12-05T04:00:24;58.00;;;28.93;;
5125;SDS011;63008;53.112;8.896;2022-12-05T04:02:48;54.20;;;26.90;;
5125;SDS011;63008;53.112;8.896;2022-12-05T04:04:58;61.00;;;27.10;;
5125;SDS011;63008;53.112;8.896;2022-12-05T04:07:01;54.60;;;25.93;;
5125;SDS011;63008;53.112;8.896;2022-12-05T04:09:09;56.00;;;28.70;;
5125;SDS011;63008;53.112;8.896;2022-12-05T04:11:15;65.43;;;27.60;;
5125;SDS011;63008;53.112;8.896;2022-12-05T04:13:21;57.27;;;27.03;;
5125;SDS011;63008;53.112;8.896;2022-12-05T04:15:35;59.30;;;28.20;;
5125;SDS011;63008;53.112;8.896;2022-12-05T04:17:57;59.20;;;26.67;;
5125;SDS011;63008;53.112;8.896;2022-12-05T04:20:01;65.33;;;29.30;;
5125;SDS011;63008;53.112;8.896;2022-12-05T04:22:25;55.20;;;27.10;;
5125;SDS011;63008;53.112;8.896;2022-12-05T04:24:29;57.03;;;26.97;;
5125;SDS011;63008;53.112;8.896;2022-12-05T04:26:52;49.23;;;25.90;;
5125;SDS011;63008;53.112;8.896;2022-12-05T04:29:09;54.20;;;27.33;;
5125;SDS011;63008;53.112;8.896;2022-12-05T04:31:18;61.30;;;28.10;;
5125;SDS011;63008;53.112;8.896;2022-12-05T04:35:55;60.00;;;29.00;;
5125;SDS011;63008;53.112;8.896;2022-12-05T04:38:19;55.90;;;26.00;;
5125;SDS011;63008;53.112;8.896;2022-12-05T04:40:38;54.17;;;27.10;;
5125;SDS011;63008;53.112;8.896;2022-12-05T04:42:44;58.60;;;28.17;;
5125;SDS011;63008;53.112;8.896;2022-12-05T04:44:50;51.03;;;27.50;;
5125;SDS011;63008;53.112;8.896;2022-12-05T04:46:54;51.77;;;26.40;;
5125;SDS011;63008;53.112;8.896;2022-12-05T04:48:57;48.70;;;26.60;;
5125;SDS011;63008;53.112;8.896;2022-12-05T04:51:01;57.40;;;28.37;;
5125;SDS011;63008;53.112;8.896;2022-12-05T04:53:07;56.67;;;27.00;;
5125;SDS011;63008;53.112;8.896;2022-12-05T04:55:12;56.27;;;27.20;;
5125;SDS011;63008;53.112;8.896;2022-12-05T04:57:21;52.20;;;27.40;;
5125;SDS011;63008;53.112;8.896;2022-12-05T04:59:27;53.77;;;25.90;;
5125;SDS011;63008;53.112;8.896;2022-12-05T05:01:33;54.13;;;28.80;;
5125;SDS011;63008;53.112;8.896;2022-12-05T05:03:40;49.70;;;25.60;;
5125;SDS011;63008;53.112;8.896;2022-12-05T05:05:48;48.77;;;26.40;;
5125;SDS011;63008;53.112;8.896;2022-12-05T05:07:53;52.53;;;26.57;;
5125;SDS011;63008;53.112;8.896;2022-12-05T05:09:54;53.43;;;28.83;;
5125;SDS011;63008;53.112;8.896;2022-12-05T05:11:56;52.47;;;26.60;;
5125;SDS011;63008;53.112;8.896;2022-12-05T05:13:57;50.93;;;26.30;;
5125;SDS011;63008;53.112;8.896;2022-12-05T05:15:58;55.33;;;29.00;;
5125;SDS011;63008;53.112;8.896;2022-12-05T05:17:59;50.20;;;27.13;;
5125;SDS011;63008;53.112;8.896;2022-12-05T05:20:00;58.60;;;27.17;;
5125;SDS011;63008;53.112;8.896;2022-12-05T05:22:23;52.53;;;26.93;;
5125;SDS011;63008;53.112;8.896;2022-12-05T05:24:24;51.03;;;27.97;;
5125;SDS011;63008;53.112;8.896;2022-12-05T05:26:26;55.73;;;27.77;;
5125;SDS011;63008;53.112;8.896;2022-12-05T05:28:28;48.10;;;26.87;;
5125;SDS011;63008;53.112;8.896;2022-12-05T05:30:29;50.70;;;26.30;;
5125;SDS011;63008;53.112;8.896;2022-12-05T05:32:33;48.47;;;27.50;;
5125;SDS011;63008;53.112;8.896;2022-12-05T05:34:34;51.37;;;26.93;;
5125;SDS011;63008;53.112;8.896;2022-12-05T05:36:35;48.97;;;26.10;;
5125;SDS011;63008;53.112;8.896;2022-12-05T05:38:38;45.07;;;26.30;;
5125;SDS011;63008;53.112;8.896;2022-12-05T05:40:41;46.77;;;24.37;;
5125;SDS011;63008;53.112;8.896;2022-12-05T05:42:43;49.83;;;27.00;;
5125;SDS011;63008;53.112;8.896;2022-12-05T05:44:45;53.20;;;27.17;;
5125;SDS011;63008;53.112;8.896;2022-12-05T05:46:46;52.53;;;26.50;;
5125;SDS011;63008;53.112;8.896;2022-12-05T05:48:47;51.43;;;27.63;;
5125;SDS011;63008;53.112;8.896;2022-12-05T05:50:48;53.13;;;27.70;;
5125;SDS011;63008;53.112;8.896;2022-12-05T05:52:49;46.83;;;26.30;;
5125;SDS011;63008;53.112;8.896;2022-12-05T05:54:50;47.43;;;25.57;;
5125;SDS011;63008;53.112;8.896;2022-12-05T05:56:50;47.57;;;26.17;;
5125;SDS011;63008;53.112;8.896;2022-12-05T05:58:55;44.40;;;25.03;;
5125;SDS011;63008;53.112;8.896;2022-12-05T06:01:09;44.90;;;26.00;;
5125;SDS011;63008;53.112;8.896;2022-12-05T06:03:12;47.47;;;25.70;;
5125;SDS011;63008;53.112;8.896;2022-12-05T06:05:13;45.53;;;25.20;;
5125;SDS011;63008;53.112;8.896;2022-12-05T06:07:14;48.43;;;27.37;;
5125;SDS011;63008;53.112;8.896;2022-12-05T06:09:15;55.70;;;28.33;;
5125;SDS011;63008;53.112;8.896;2022-12-05T06:11:20;54.77;;;27.20;;
5125;SDS011;63008;53.112;8.896;2022-12-05T06:13:23;54.70;;;27.63;;
5125;SDS011;63008;53.112;8.896;2022-12-05T06:15:24;56.20;;;28.33;;
5125;SDS011;63008;53.112;8.896;2022-12-05T06:17:26;53.53;;;27.17;;
5125;SDS011;63008;53.112;8.896;2022-12-05T06:19:27;53.33;;;27.27;;
5125;SDS011;63008;53.112;8.896;2022-12-05T06:21:28;48.33;;;24.97;;
5125;SDS011;63008;53.112;8.896;2022-12-05T06:23:29;51.40;;;27.00;;
5125;SDS011;63008;53.112;8.896;2022-12-05T06:25:30;43.17;;;24.93;;
5125;SDS011;63008;53.112;8.896;2022-12-05T06:27:31;43.77;;;25.90;;
5125;SDS011;63008;53.112;8.896;2022-12-05T06:29:32;40.40;;;24.10;;
5125;SDS011;63008;53.112;8.896;2022-12-05T06:31:34;46.07;;;23.90;;
5125;SDS011;63008;53.112;8.896;2022-12-05T06:33:35;44.00;;;23.83;;
5125;SDS011;63008;53.112;8.896;2022-12-05T06:35:36;38.57;;;24.13;;
5125;SDS011;63008;53.112;8.896;2022-12-05T06:37:37;41.17;;;22.97;;
5125;SDS011;63008;53.112;8.896;2022-12-05T06:39:38;45.67;;;25.10;;
5125;SDS011;63008;53.112;8.896;2022-12-05T06:41:39;41.57;;;24.70;;
5125;SDS011;63008;53.112;8.896;2022-12-05T06:43:40;40.17;;;23.70;;
5125;SDS011;63008;53.112;8.896;2022-12-05T06:45:42;45.43;;;24.70;;
5125;SDS011;63008;53.112;8.896;2022-12-05T06:47:43;42.60;;;23.97;;
5125;SDS011;63008;53.112;8.896;2022-12-05T06:49:44;45.70;;;25.60;;
5125;SDS011;63008;53.112;8.896;2022-12-05T06:51:45;44.50;;;24.37;;
5125;SDS011;63008;53.112;8.896;2022-12-05T06:53:46;39.73;;;23.03;;
5125;SDS011;63008;53.112;8.896;2022-12-05T06:55:58;43.60;;;23.80;;
5125;SDS011;63008;53.112;8.896;2022-12-05T06:58:00;40.30;;;24.40;;
5125;SDS011;63008;53.112;8.896;2022-12-05T07:00:02;42.03;;;23.40;;
5125;SDS011;63008;53.112;8.896;2022-12-05T07:02:34;39.87;;;24.07;;
5125;SDS011;63008;53.112;8.896;2022-12-05T07:04:35;41.70;;;24.03;;
5125;SDS011;63008;53.112;8.896;2022-12-05T07:06:36;46.23;;;25.50;;
5125;SDS011;63008;53.112;8.896;2022-12-05T07:08:39;42.93;;;24.10;;
5125;SDS011;63008;53.112;8.896;2022-12-05T07:10:41;58.93;;;24.70;;
5125;SDS011;63008;53.112;8.896;2022-12-05T07:12:41;45.03;;;24.00;;
5125;SDS011;63008;53.112;8.896;2022-12-05T07:14:43;48.83;;;26.50;;
5125;SDS011;63008;53.112;8.896;2022-12-05T07:16:44;43.27;;;25.37;;
5125;SDS011;63008;53.112;8.896;2022-12-05T07:18:45;41.87;;;23.97;;
5125;SDS011;63008;53.112;8.896;2022-12-05T07:20:54;41.17;;;23.93;;
5125;SDS011;63008;53.112;8.896;2022-12-05T07:22:59;50.03;;;25.87;;
5125;SDS011;63008;53.112;8.896;2022-12-05T07:25:00;44.07;;;25.30;;
5125;SDS011;63008;53.112;8.896;2022-12-05T07:27:04;40.60;;;24.13;;
5125;SDS011;63008;53.112;8.896;2022-12-05T07:29:08;45.17;;;26.10;;
5125;SDS011;63008;53.112;8.896;2022-12-05T07:31:11;45.33;;;25.27;;
5125;SDS011;63008;53.112;8.896;2022-12-05T07:33:12;44.97;;;25.73;;
5125;SDS011;63008;53.112;8.896;2022-12-05T07:35:13;43.57;;;25.70;;
5125;SDS011;63008;53.112;8.896;2022-12-05T07:37:15;41.47;;;25.00;;
5125;SDS011;63008;53.112;8.896;2022-12-05T07:39:15;41.17;;;24.30;;
5125;SDS011;63008;53.112;8.896;2022-12-05T07:41:20;39.50;;;23.57;;
5125;SDS011;63008;53.112;8.896;2022-12-05T07:43:26;38.60;;;22.07;;
5125;SDS011;63008;53.112;8.896;2022-12-05T07:45:27;41.90;;;24.80;;
5125;SDS011;63008;53.112;8.896;2022-12-05T07:47:28;38.30;;;23.53;;
5125;SDS011;63008;53.112;8.896;2022-12-05T07:49:30;37.37;;;23.43;;
5125;SDS011;63008;53.112;8.896;2022-12-05T07:51:31;37.43;;;21.50;;
5125;SDS011;63008;53.112;8.896;2022-12-05T07:53:33;36.57;;;23.07;;
5125;SDS011;63008;53.112;8.896;2022-12-05T07:55:34;35.80;;;21.60;;
5125;SDS011;63008;53.112;8.896;2022-12-05T07:57:37;38.13;;;22.33;;
5125;SDS011;63008;53.112;8.896;2022-12-05T07:59:38;38.63;;;22.77;;
5125;SDS011;63008;53.112;8.896;2022-12-05T08:01:39;36.00;;;21.80;;
5125;SDS011;63008;53.112;8.896;2022-12-05T08:03:40;35.20;;;20.57;;
5125;SDS011;63008;53.112;8.896;2022-12-05T08:05:42;35.17;;;20.97;;
5125;SDS011;63008;53.112;8.896;2022-12-05T08:07:43;34.27;;;20.67;;
5125;SDS011;63008;53.112;8.896;2022-12-05T08:09:44;35.50;;;20.43;;
5125;SDS011;63008;53.112;8.896;2022-12-05T08:11:45;35.63;;;20.67;;
5125;SDS011;63008;53.112;8.896;2022-12-05T08:13:46;32.73;;;20.97;;
5125;SDS011;63008;53.112;8.896;2022-12-05T08:15:47;37.03;;;20.40;;
5125;SDS011;63008;53.112;8.896;2022-12-05T08:17:48;32.30;;;19.77;;
5125;SDS011;63008;53.112;8.896;2022-12-05T08:19:49;31.50;;;19.20;;
5125;SDS011;63008;53.112;8.896;2022-12-05T08:21:51;30.57;;;18.73;;
5125;SDS011;63008;53.112;8.896;2022-12-05T08:23:54;31.83;;;18.47;;
5125;SDS011;63008;53.112;8.896;2022-12-05T08:25:59;29.23;;;17.87;;
5125;SDS011;63008;53.112;8.896;2022-12-05T08:28:07;29.97;;;18.03;;
5125;SDS011;63008;53.112;8.896;2022-12-05T08:30:08;27.53;;;17.50;;
5125;SDS011;63008;53.112;8.896;2022-12-05T08:32:10;27.03;;;17.90;;
5125;SDS011;63008;53.112;8.896;2022-12-05T08:34:11;26.90;;;18.30;;
5125;SDS011;63008;53.112;8.896;2022-12-05T08:36:13;27.40;;;17.40;;
5125;SDS011;63008;53.112;8.896;2022-12-05T08:38:15;26.50;;;16.83;;
5125;SDS011;63008;53.112;8.896;2022-12-05T08:40:16;31.83;;;17.40;;
5125;SDS011;63008;53.112;8.896;2022-12-05T08:42:17;32.00;;;16.37;;
5125;SDS011;63008;53.112;8.896;2022-12-05T08:44:18;22.60;;;15.17;;
5125;SDS011;63008;53.112;8.896;2022-12-05T08:46:19;24.40;;;15.47;;
5125;SDS011;63008;53.112;8.896;2022-12-05T08:48:21;27.63;;;16.83;;
5125;SDS011;63008;53.112;8.896;2022-12-05T08:50:22;29.33;;;15.73;;
5125;SDS011;63008;53.112;8.896;2022-12-05T08:52:23;26.90;;;16.90;;
5125;SDS011;63008;53.112;8.896;2022-12-05T08:54:24;27.30;;;16.87;;
5125;SDS011;63008;53.112;8.896;2022-12-05T08:56:25;26.87;;;15.27;;
5125;SDS011;63008;53.112;8.896;2022-12-05T08:58:27;22.80;;;14.33;;
5125;SDS011;63008;53.112;8.896;2022-12-05T09:00:28;26.77;;;15.43;;
5125;SDS011;63008;53.112;8.896;2022-12-05T09:02:29;28.50;;;15.83;;
5125;SDS011;63008;53.112;8.896;2022-12-05T09:04:30;25.13;;;15.97;;
5125;SDS011;63008;53.112;8.896;2022-12-05T09:06:32;25.00;;;16.10;;
5125;SDS011;63008;53.112;8.896;2022-12-05T09:08:34;24.50;;;15.57;;
5125;SDS011;63008;53.112;8.896;2022-12-05T09:10:36;24.53;;;15.63;;
5125;SDS011;63008;53.112;8.896;2022-12-05T09:12:38;26.07;;;15.77;;
5125;SDS011;63008;53.112;8.896;2022-12-05T09:14:39;28.77;;;16.03;;
5125;SDS011;63008;53.112;8.896;2022-12-05T09:16:41;32.53;;;14.93;;
5125;SDS011;63008;53.112;8.896;2022-12-05T09:18:44;28.30;;;16.00;;
5125;SDS011;63008;53.112;8.896;2022-12-05T09:20:45;22.80;;;14.67;;
5125;SDS011;63008;53.112;8.896;2022-12-05T09:22:46;24.03;;;14.57;;
5125;SDS011;63008;53.112;8.896;2022-12-05T09:24:48;21.17;;;13.67;;
5125;SDS011;63008;53.112;8.896;2022-12-05T09:26:49;22.50;;;13.47;;
5125;SDS011;63008;53.112;8.896;2022-12-05T09:28:50;24.53;;;15.00;;
5125;SDS011;63008;53.112;8.896;2022-12-05T09:30:58;22.20;;;14.00;;
5125;SDS011;63008;53.112;8.896;2022-12-05T09:33:01;25.70;;;14.20;;
5125;SDS011;63008;53.112;8.896;2022-12-05T09:35:02;24.97;;;13.40;;
5125;SDS011;63008;53.112;8.896;2022-12-05T09:37:04;24.47;;;13.30;;
5125;SDS011;63008;53.112;8.896;2022-12-05T09:39:06;22.77;;;12.97;;
5125;SDS011;63008;53.112;8.896;2022-12-05T09:43:59;22.40;;;12.70;;
5125;SDS011;63008;53.112;8.896;2022-12-05T09:46:14;29.23;;;13.87;;
5125;SDS011;63008;53.112;8.896;2022-12-05T09:48:25;24.97;;;13.43;;
5125;SDS011;63008;53.112;8.896;2022-12-05T09:50:27;22.57;;;12.23;;
5125;SDS011;63008;53.112;8.896;2022-12-05T09:52:31;24.13;;;12.93;;
5125;SDS011;63008;53.112;8.896;2022-12-05T09:54:34;20.17;;;12.23;;
5125;SDS011;63008;53.112;8.896;2022-12-05T09:56:35;24.57;;;13.20;;
5125;SDS011;63008;53.112;8.896;2022-12-05T09:58:48;18.30;;;11.93;;
5125;SDS011;63008;53.112;8.896;2022-12-05T10:00:53;21.73;;;12.53;;
5125;SDS011;63008;53.112;8.896;2022-12-05T10:03:11;17.83;;;11.30;;
5125;SDS011;63008;53.112;8.896;2022-12-05T10:05:46;20.80;;;11.70;;
5125;SDS011;63008;53.112;8.896;2022-12-05T10:07:50;20.80;;;12.20;;
5125;SDS011;63008;53.112;8.896;2022-12-05T10:10:06;18.00;;;12.00;;
5125;SDS011;63008;53.112;8.896;2022-12-05T10:17:07;20.53;;;11.60;;
5125;SDS011;63008;53.112;8.896;2022-12-05T10:19:30;17.80;;;11.60;;
5125;SDS011;63008;53.112;8.896;2022-12-05T10:26:03;16.70;;;10.93;;
5125;SDS011;63008;53.112;8.896;2022-12-05T10:28:11;16.30;;;10.60;;
5125;SDS011;63008;53.112;8.896;2022-12-05T10:30:23;20.23;;;11.30;;
5125;SDS011;63008;53.112;8.896;2022-12-05T10:32:35;16.73;;;11.50;;
5125;SDS011;63008;53.112;8.896;2022-12-05T10:34:42;15.87;;;10.90;;
5125;SDS011;63008;53.112;8.896;2022-12-05T10:36:52;18.53;;;11.63;;
5125;SDS011;63008;53.112;8.896;2022-12-05T10:38:56;22.73;;;11.43;;
5125;SDS011;63008;53.112;8.896;2022-12-05T10:40:59;21.30;;;12.10;;
5125;SDS011;63008;53.112;8.896;2022-12-05T10:43:05;17.80;;;12.03;;
5125;SDS011;63008;53.112;8.896;2022-12-05T10:45:18;17.50;;;11.27;;
5125;SDS011;63008;53.112;8.896;2022-12-05T10:47:22;20.30;;;11.37;;
5125;SDS011;63008;53.112;8.896;2022-12-05T10:49:23;22.53;;;13.87;;
5125;SDS011;63008;53.112;8.896;2022-12-05T10:51:26;22.97;;;13.60;;
5125;SDS011;63008;53.112;8.896;2022-12-05T10:53:30;21.03;;;12.63;;
5125;SDS011;63008;53.112;8.896;2022-12-05T10:55:52;21.33;;;12.90;;
5125;SDS011;63008;53.112;8.896;2022-12-05T11:00:13;18.93;;;11.77;;
5125;SDS011;63008;53.112;8.896;2022-12-05T11:04:42;20.87;;;12.73;;
5125;SDS011;63008;53.112;8.896;2022-12-05T11:06:51;20.97;;;13.40;;
5125;SDS011;63008;53.112;8.896;2022-12-05T11:08:57;21.00;;;12.17;;
5125;SDS011;63008;53.112;8.896;2022-12-05T11:11:19;22.23;;;13.53;;
5125;SDS011;63008;53.112;8.896;2022-12-05T11:13:24;21.73;;;14.27;;
5125;SDS011;63008;53.112;8.896;2022-12-05T11:15:26;24.80;;;15.13;;
5125;SDS011;63008;53.112;8.896;2022-12-05T11:17:30;22.20;;;14.40;;
5125;SDS011;63008;53.112;8.896;2022-12-05T11:19:36;25.33;;;14.37;;
5125;SDS011;63008;53.112;8.896;2022-12-05T11:21:41;21.63;;;14.10;;
5125;SDS011;63008;53.112;8.896;2022-12-05T11:23:42;23.93;;;13.60;;
5125;SDS011;63008;53.112;8.896;2022-12-05T11:25:43;22.23;;;14.33;;
5125;SDS011;63008;53.112;8.896;2022-12-05T11:27:44;27.90;;;14.17;;
5125;SDS011;63008;53.112;8.896;2022-12-05T11:30:13;23.83;;;14.30;;
5125;SDS011;63008;53.112;8.896;2022-12-05T11:32:20;22.83;;;14.43;;
5125;SDS011;63008;53.112;8.896;2022-12-05T11:34:25;26.00;;;14.47;;
5125;SDS011;63008;53.112;8.896;2022-12-05T11:36:35;23.20;;;13.73;;
5125;SDS011;63008;53.112;8.896;2022-12-05T11:38:40;25.03;;;14.30;;
5125;SDS011;63008;53.112;8.896;2022-12-05T11:43:03;25.53;;;15.13;;
5125;SDS011;63008;53.112;8.896;2022-12-05T11:45:32;25.57;;;14.63;;
5125;SDS011;63008;53.112;8.896;2022-12-05T11:55:09;23.20;;;13.90;;
5125;SDS011;63008;53.112;8.896;2022-12-05T12:02:37;26.17;;;14.47;;
5125;SDS011;63008;53.112;8.896;2022-12-05T12:07:14;23.03;;;14.13;;
5125;SDS011;63008;53.112;8.896;2022-12-05T12:11:56;27.83;;;15.60;;
5125;SDS011;63008;53.112;8.896;2022-12-05T12:21:03;26.97;;;15.33;;
5125;SDS011;63008;53.112;8.896;2022-12-05T12:28:14;27.63;;;13.90;;
5125;SDS011;63008;53.112;8.896;2022-12-05T12:39:30;25.20;;;13.80;;
5125;SDS011;63008;53.112;8.896;2022-12-05T12:49:13;28.10;;;13.53;;
5125;SDS011;63008;53.112;8.896;2022-12-05T12:51:30;26.33;;;13.53;;
5125;SDS011;63008;53.112;8.896;2022-12-05T12:58:16;19.50;;;12.50;;
5125;SDS011;63008;53.112;8.896;2022-12-05T13:00:47;20.27;;;12.10;;
5125;SDS011;63008;53.112;8.896;2022-12-05T13:03:16;23.53;;;11.27;;
5125;SDS011;63008;53.112;8.896;2022-12-05T13:07:55;21.33;;;10.40;;
5125;SDS011;63008;53.112;8.896;2022-12-05T13:12:21;15.93;;;10.90;;
5125;SDS011;63008;53.112;8.896;2022-12-05T13:14:26;18.07;;;10.53;;
5125;SDS011;63008;53.112;8.896;2022-12-05T13:16:33;16.83;;;11.50;;
5125;SDS011;63008;53.112;8.896;2022-12-05T13:18:39;21.43;;;12.07;;
5125;SDS011;63008;53.112;8.896;2022-12-05T13:20:40;18.03;;;11.80;;
5125;SDS011;63008;53.112;8.896;2022-12-05T13:22:41;18.20;;;12.00;;
5125;SDS011;63008;53.112;8.896;2022-12-05T13:24:44;23.87;;;12.43;;
5125;SDS011;63008;53.112;8.896;2022-12-05T13:26:47;20.63;;;12.10;;
5125;SDS011;63008;53.112;8.896;2022-12-05T13:28:50;22.67;;;12.60;;
5125;SDS011;63008;53.112;8.896;2022-12-05T13:30:54;25.07;;;13.93;;
5125;SDS011;63008;53.112;8.896;2022-12-05T13:33:06;24.13;;;13.17;;
5125;SDS011;63008;53.112;8.896;2022-12-05T13:35:19;21.63;;;12.33;;
5125;SDS011;63008;53.112;8.896;2022-12-05T13:37:46;18.33;;;12.07;;
5125;SDS011;63008;53.112;8.896;2022-12-05T13:40:18;20.37;;;11.03;;
5125;SDS011;63008;53.112;8.896;2022-12-05T13:42:43;23.33;;;12.63;;
5125;SDS011;63008;53.112;8.896;2022-12-05T13:44:46;19.80;;;11.73;;
5125;SDS011;63008;53.112;8.896;2022-12-05T13:46:50;24.20;;;12.53;;
5125;SDS011;63008;53.112;8.896;2022-12-05T13:48:51;21.90;;;11.97;;
5125;SDS011;63008;53.112;8.896;2022-12-05T13:51:02;20.63;;;11.83;;
5125;SDS011;63008;53.112;8.896;2022-12-05T13:55:53;20.37;;;11.37;;
5125;SDS011;63008;53.112;8.896;2022-12-05T13:58:02;20.13;;;10.80;;
5125;SDS011;63008;53.112;8.896;2022-12-05T14:00:26;20.27;;;10.80;;
5125;SDS011;63008;53.112;8.896;2022-12-05T14:04:46;22.17;;;10.77;;
5125;SDS011;63008;53.112;8.896;2022-12-05T14:08:52;17.67;;;10.87;;
5125;SDS011;63008;53.112;8.896;2022-12-05T14:12:55;17.20;;;11.47;;